sensor_id;sensor_type;location;lat;lon;timestamp;P1;durP1;ratioP1;P2;durP2;ratioP2
53313;SDS011;39202;51.468;7.146;2023-09-19T00:00:55;0.85;;;0.85;;
53313;SDS011;39202;51.468;7.146;2023-09-19T00:05:57;0.90;;;0.90;;
53313;SDS011;39202;51.468;7.146;2023-09-19T00:11:01;0.77;;;0.77;;
53313;SDS011;39202;51.468;7.146;2023-09-19T00:16:07;1.02;;;1.00;;
53313;SDS011;39202;51.468;7.146;2023-09-19T00:21:10;0.80;;;0.80;;
53313;SDS011;39202;51.468;7.146;2023-09-19T00:26:13;0.90;;;0.90;;
53313;SDS011;39202;51.468;7.146;2023-09-19T00:31:15;0.70;;;0.70;;
53313;SDS011;39202;51.468;7.146;2023-09-19T00:36:17;1.00;;;0.93;;
53313;SDS011;39202;51.468;7.146;2023-09-19T00:41:20;0.90;;;0.90;;
53313;SDS011;39202;51.468;7.146;2023-09-19T00:46:21;0.90;;;0.90;;
53313;SDS011;39202;51.468;7.146;2023-09-19T00:51:23;1.00;;;1.00;;
53313;SDS011;39202;51.468;7.146;2023-09-19T00:56:28;0.90;;;0.90;;
53313;SDS011;39202;51.468;7.146;2023-09-19T01:01:30;1.20;;;1.10;;
53313;SDS011;39202;51.468;7.146;2023-09-19T01:06:32;1.00;;;1.00;;
53313;SDS011;39202;51.468;7.146;2023-09-19T01:11:38;0.77;;;0.77;;
53313;SDS011;39202;51.468;7.146;2023-09-19T01:16:45;0.70;;;0.70;;
53313;SDS011;39202;51.468;7.146;2023-09-19T01:21:55;0.93;;;0.93;;
53313;SDS011;39202;51.468;7.146;2023-09-19T01:32:47;1.30;;;1.02;;
53313;SDS011;39202;51.468;7.146;2023-09-19T01:37:52;0.90;;;0.90;;
53313;SDS011;39202;51.468;7.146;2023-09-19T01:42:56;0.73;;;0.73;;
53313;SDS011;39202;51.468;7.146;2023-09-19T01:48:03;1.02;;;1.02;;
53313;SDS011;39202;51.468;7.146;2023-09-19T01:53:14;0.80;;;0.80;;
53313;SDS011;39202;51.468;7.146;2023-09-19T01:58:27;1.10;;;1.00;;
53313;SDS011;39202;51.468;7.146;2023-09-19T02:03:36;0.80;;;0.80;;
53313;SDS011;39202;51.468;7.146;2023-09-19T02:08:39;0.70;;;0.70;;
53313;SDS011;39202;51.468;7.146;2023-09-19T02:13:41;0.90;;;0.90;;
53313;SDS011;39202;51.468;7.146;2023-09-19T02:18:44;0.88;;;0.88;;
53313;SDS011;39202;51.468;7.146;2023-09-19T02:23:47;0.73;;;0.73;;
53313;SDS011;39202;51.468;7.146;2023-09-19T02:28:48;0.80;;;0.80;;
53313;SDS011;39202;51.468;7.146;2023-09-19T02:33:51;0.80;;;0.80;;
53313;SDS011;39202;51.468;7.146;2023-09-19T02:38:53;1.10;;;1.10;;
53313;SDS011;39202;51.468;7.146;2023-09-19T02:43:56;0.73;;;0.73;;
53313;SDS011;39202;51.468;7.146;2023-09-19T02:49:00;0.98;;;0.98;;
53313;SDS011;39202;51.468;7.146;2023-09-19T02:54:03;0.90;;;0.90;;
53313;SDS011;39202;51.468;7.146;2023-09-19T02:59:05;0.80;;;0.80;;
53313;SDS011;39202;51.468;7.146;2023-09-19T03:04:11;0.90;;;0.90;;
53313;SDS011;39202;51.468;7.146;2023-09-19T03:09:13;0.80;;;0.80;;
53313;SDS011;39202;51.468;7.146;2023-09-19T03:14:16;0.82;;;0.82;;
53313;SDS011;39202;51.468;7.146;2023-09-19T03:19:21;0.80;;;0.80;;
53313;SDS011;39202;51.468;7.146;2023-09-19T03:24:23;0.90;;;0.90;;
53313;SDS011;39202;51.468;7.146;2023-09-19T03:29:26;0.80;;;0.80;;
53313;SDS011;39202;51.468;7.146;2023-09-19T03:34:29;0.90;;;0.90;;
53313;SDS011;39202;51.468;7.146;2023-09-19T03:39:31;0.80;;;0.80;;
53313;SDS011;39202;51.468;7.146;2023-09-19T03:44:33;0.80;;;0.80;;
53313;SDS011;39202;51.468;7.146;2023-09-19T03:49:36;0.75;;;0.75;;
53313;SDS011;39202;51.468;7.146;2023-09-19T03:54:38;0.80;;;0.80;;
53313;SDS011;39202;51.468;7.146;2023-09-19T03:59:41;0.80;;;0.80;;
53313;SDS011;39202;51.468;7.146;2023-09-19T04:04:45;0.80;;;0.80;;
53313;SDS011;39202;51.468;7.146;2023-09-19T04:09:47;0.73;;;0.73;;
53313;SDS011;39202;51.468;7.146;2023-09-19T04:14:49;0.75;;;0.75;;
53313;SDS011;39202;51.468;7.146;2023-09-19T04:19:53;0.90;;;0.90;;
53313;SDS011;39202;51.468;7.146;2023-09-19T04:24:54;0.80;;;0.80;;
53313;SDS011;39202;51.468;7.146;2023-09-19T04:29:57;0.90;;;0.90;;
53313;SDS011;39202;51.468;7.146;2023-09-19T04:35:00;0.85;;;0.85;;
53313;SDS011;39202;51.468;7.146;2023-09-19T04:40:06;1.00;;;0.90;;
53313;SDS011;39202;51.468;7.146;2023-09-19T04:45:12;0.80;;;0.80;;
53313;SDS011;39202;51.468;7.146;2023-09-19T04:50:16;1.08;;;1.08;;
53313;SDS011;39202;51.468;7.146;2023-09-19T04:55:18;0.90;;;0.90;;
53313;SDS011;39202;51.468;7.146;2023-09-19T05:00:20;0.80;;;0.80;;
53313;SDS011;39202;51.468;7.146;2023-09-19T05:05:25;0.85;;;0.85;;
53313;SDS011;39202;51.468;7.146;2023-09-19T05:10:28;0.88;;;0.88;;
53313;SDS011;39202;51.468;7.146;2023-09-19T05:15:29;1.02;;;1.00;;
53313;SDS011;39202;51.468;7.146;2023-09-19T05:20:33;0.70;;;0.70;;
53313;SDS011;39202;51.468;7.146;2023-09-19T05:25:39;0.73;;;0.73;;
53313;SDS011;39202;51.468;7.146;2023-09-19T05:30:42;0.85;;;0.85;;
53313;SDS011;39202;51.468;7.146;2023-09-19T05:35:45;1.00;;;1.00;;
53313;SDS011;39202;51.468;7.146;2023-09-19T05:40:49;1.00;;;0.98;;
53313;SDS011;39202;51.468;7.146;2023-09-19T05:45:51;1.05;;;0.93;;
53313;SDS011;39202;51.468;7.146;2023-09-19T05:50:54;0.90;;;0.90;;
53313;SDS011;39202;51.468;7.146;2023-09-19T05:55:56;1.00;;;1.00;;
53313;SDS011;39202;51.468;7.146;2023-09-19T06:00:58;1.67;;;1.17;;
53313;SDS011;39202;51.468;7.146;2023-09-19T06:06:01;1.80;;;1.33;;
53313;SDS011;39202;51.468;7.146;2023-09-19T06:11:04;1.30;;;1.20;;
53313;SDS011;39202;51.468;7.146;2023-09-19T06:16:07;1.35;;;1.25;;
53313;SDS011;39202;51.468;7.146;2023-09-19T06:21:10;1.67;;;1.40;;
53313;SDS011;39202;51.468;7.146;2023-09-19T06:26:12;2.28;;;1.60;;
53313;SDS011;39202;51.468;7.146;2023-09-19T06:31:14;5.55;;;2.30;;
53313;SDS011;39202;51.468;7.146;2023-09-19T06:36:17;5.05;;;2.40;;
53313;SDS011;39202;51.468;7.146;2023-09-19T06:41:19;6.85;;;3.10;;
53313;SDS011;39202;51.468;7.146;2023-09-19T06:46:24;6.97;;;2.88;;
53313;SDS011;39202;51.468;7.146;2023-09-19T06:51:34;7.13;;;2.80;;
53313;SDS011;39202;51.468;7.146;2023-09-19T06:56:36;6.68;;;2.83;;
53313;SDS011;39202;51.468;7.146;2023-09-19T07:01:37;7.72;;;3.00;;
53313;SDS011;39202;51.468;7.146;2023-09-19T07:06:41;7.03;;;2.90;;
53313;SDS011;39202;51.468;7.146;2023-09-19T07:11:43;6.90;;;2.50;;
53313;SDS011;39202;51.468;7.146;2023-09-19T07:16:45;4.40;;;2.42;;
53313;SDS011;39202;51.468;7.146;2023-09-19T07:21:49;6.72;;;3.30;;
53313;SDS011;39202;51.468;7.146;2023-09-19T07:26:51;6.45;;;2.80;;
53313;SDS011;39202;51.468;7.146;2023-09-19T07:31:52;5.80;;;2.60;;
53313;SDS011;39202;51.468;7.146;2023-09-19T07:36:55;5.25;;;2.63;;
53313;SDS011;39202;51.468;7.146;2023-09-19T07:41:58;3.53;;;2.22;;
53313;SDS011;39202;51.468;7.146;2023-09-19T07:46:59;4.88;;;2.20;;
53313;SDS011;39202;51.468;7.146;2023-09-19T07:52:04;4.13;;;2.25;;
53313;SDS011;39202;51.468;7.146;2023-09-19T07:57:07;4.35;;;1.85;;
53313;SDS011;39202;51.468;7.146;2023-09-19T08:02:09;2.53;;;1.90;;
53313;SDS011;39202;51.468;7.146;2023-09-19T08:07:17;3.17;;;1.77;;
53313;SDS011;39202;51.468;7.146;2023-09-19T08:12:19;3.80;;;2.40;;
53313;SDS011;39202;51.468;7.146;2023-09-19T08:17:24;4.45;;;1.92;;
53313;SDS011;39202;51.468;7.146;2023-09-19T08:22:27;4.15;;;1.95;;
53313;SDS011;39202;51.468;7.146;2023-09-19T08:27:29;4.43;;;2.22;;
53313;SDS011;39202;51.468;7.146;2023-09-19T08:32:31;2.30;;;1.50;;
53313;SDS011;39202;51.468;7.146;2023-09-19T08:37:34;1.77;;;1.60;;
53313;SDS011;39202;51.468;7.146;2023-09-19T08:42:48;5.40;;;1.90;;
53313;SDS011;39202;51.468;7.146;2023-09-19T08:47:53;3.03;;;1.70;;
53313;SDS011;39202;51.468;7.146;2023-09-19T08:53:06;3.53;;;1.92;;
53313;SDS011;39202;51.468;7.146;2023-09-19T08:58:13;1.80;;;1.50;;
53313;SDS011;39202;51.468;7.146;2023-09-19T09:03:19;2.80;;;1.52;;
53313;SDS011;39202;51.468;7.146;2023-09-19T09:08:24;2.35;;;1.55;;
53313;SDS011;39202;51.468;7.146;2023-09-19T09:13:26;2.50;;;1.67;;
53313;SDS011;39202;51.468;7.146;2023-09-19T09:18:28;1.95;;;1.50;;
53313;SDS011;39202;51.468;7.146;2023-09-19T09:23:32;1.95;;;1.48;;
53313;SDS011;39202;51.468;7.146;2023-09-19T09:28:34;3.42;;;1.70;;
53313;SDS011;39202;51.468;7.146;2023-09-19T09:33:40;2.63;;;1.52;;
53313;SDS011;39202;51.468;7.146;2023-09-19T09:38:45;2.80;;;1.40;;
53313;SDS011;39202;51.468;7.146;2023-09-19T09:43:49;3.00;;;1.55;;
53313;SDS011;39202;51.468;7.146;2023-09-19T09:48:55;2.67;;;1.80;;
53313;SDS011;39202;51.468;7.146;2023-09-19T09:54:14;1.98;;;1.50;;
53313;SDS011;39202;51.468;7.146;2023-09-19T09:59:18;2.30;;;1.30;;
53313;SDS011;39202;51.468;7.146;2023-09-19T10:04:27;2.72;;;1.50;;
53313;SDS011;39202;51.468;7.146;2023-09-19T10:09:45;4.10;;;1.77;;
53313;SDS011;39202;51.468;7.146;2023-09-19T10:14:47;3.10;;;1.38;;
53313;SDS011;39202;51.468;7.146;2023-09-19T10:19:52;2.38;;;1.45;;
53313;SDS011;39202;51.468;7.146;2023-09-19T10:24:58;3.35;;;1.58;;
53313;SDS011;39202;51.468;7.146;2023-09-19T10:30:05;2.35;;;1.50;;
53313;SDS011;39202;51.468;7.146;2023-09-19T10:35:09;2.58;;;1.40;;
53313;SDS011;39202;51.468;7.146;2023-09-19T10:40:14;2.20;;;1.52;;
53313;SDS011;39202;51.468;7.146;2023-09-19T10:45:17;2.95;;;1.42;;
53313;SDS011;39202;51.468;7.146;2023-09-19T10:50:20;1.63;;;1.50;;
53313;SDS011;39202;51.468;7.146;2023-09-19T10:55:24;1.55;;;1.30;;
53313;SDS011;39202;51.468;7.146;2023-09-19T11:00:30;1.38;;;1.20;;
53313;SDS011;39202;51.468;7.146;2023-09-19T11:05:34;2.35;;;1.40;;
53313;SDS011;39202;51.468;7.146;2023-09-19T11:10:45;1.83;;;1.40;;
53313;SDS011;39202;51.468;7.146;2023-09-19T11:16:03;2.50;;;1.50;;
53313;SDS011;39202;51.468;7.146;2023-09-19T11:26:43;1.50;;;1.40;;
53313;SDS011;39202;51.468;7.146;2023-09-19T11:31:47;2.47;;;1.45;;
53313;SDS011;39202;51.468;7.146;2023-09-19T11:36:51;2.15;;;1.27;;
53313;SDS011;39202;51.468;7.146;2023-09-19T11:41:55;1.92;;;1.30;;
53313;SDS011;39202;51.468;7.146;2023-09-19T11:46:57;2.63;;;1.50;;
53313;SDS011;39202;51.468;7.146;2023-09-19T11:52:00;2.47;;;1.30;;
53313;SDS011;39202;51.468;7.146;2023-09-19T11:57:07;1.77;;;1.35;;
53313;SDS011;39202;51.468;7.146;2023-09-19T12:02:11;3.50;;;1.33;;
53313;SDS011;39202;51.468;7.146;2023-09-19T12:07:29;2.90;;;1.48;;
53313;SDS011;39202;51.468;7.146;2023-09-19T12:12:32;3.03;;;1.50;;
53313;SDS011;39202;51.468;7.146;2023-09-19T12:17:37;2.55;;;1.33;;
53313;SDS011;39202;51.468;7.146;2023-09-19T12:22:41;1.67;;;1.20;;
53313;SDS011;39202;51.468;7.146;2023-09-19T12:27:45;1.90;;;1.42;;
53313;SDS011;39202;51.468;7.146;2023-09-19T12:32:48;2.50;;;1.25;;
53313;SDS011;39202;51.468;7.146;2023-09-19T12:37:51;2.35;;;1.50;;
53313;SDS011;39202;51.468;7.146;2023-09-19T12:42:56;1.98;;;1.52;;
53313;SDS011;39202;51.468;7.146;2023-09-19T12:48:17;2.10;;;1.30;;
53313;SDS011;39202;51.468;7.146;2023-09-19T12:53:24;1.50;;;1.27;;
53313;SDS011;39202;51.468;7.146;2023-09-19T12:58:30;2.42;;;1.30;;
53313;SDS011;39202;51.468;7.146;2023-09-19T13:03:33;3.33;;;1.33;;
53313;SDS011;39202;51.468;7.146;2023-09-19T13:08:37;1.83;;;1.15;;
53313;SDS011;39202;51.468;7.146;2023-09-19T13:13:43;1.98;;;1.52;;
53313;SDS011;39202;51.468;7.146;2023-09-19T13:18:49;1.73;;;1.25;;
53313;SDS011;39202;51.468;7.146;2023-09-19T13:23:53;2.35;;;1.30;;
53313;SDS011;39202;51.468;7.146;2023-09-19T13:29:00;1.83;;;1.35;;
53313;SDS011;39202;51.468;7.146;2023-09-19T13:34:02;1.90;;;1.23;;
53313;SDS011;39202;51.468;7.146;2023-09-19T13:39:04;1.33;;;1.23;;
53313;SDS011;39202;51.468;7.146;2023-09-19T13:44:10;1.63;;;1.30;;
53313;SDS011;39202;51.468;7.146;2023-09-19T13:49:12;0.98;;;0.90;;
53313;SDS011;39202;51.468;7.146;2023-09-19T13:54:14;1.27;;;1.17;;
53313;SDS011;39202;51.468;7.146;2023-09-19T13:59:17;1.40;;;1.30;;
53313;SDS011;39202;51.468;7.146;2023-09-19T14:04:19;1.92;;;1.00;;
53313;SDS011;39202;51.468;7.146;2023-09-19T14:09:22;1.40;;;1.08;;
53313;SDS011;39202;51.468;7.146;2023-09-19T14:14:26;4.18;;;1.27;;
53313;SDS011;39202;51.468;7.146;2023-09-19T14:19:28;1.52;;;1.10;;
53313;SDS011;39202;51.468;7.146;2023-09-19T14:24:29;1.55;;;1.00;;
53313;SDS011;39202;51.468;7.146;2023-09-19T14:29:33;1.00;;;1.00;;
53313;SDS011;39202;51.468;7.146;2023-09-19T14:34:34;1.20;;;1.10;;
53313;SDS011;39202;51.468;7.146;2023-09-19T14:39:42;1.20;;;1.10;;
53313;SDS011;39202;51.468;7.146;2023-09-19T14:44:46;1.05;;;0.90;;
53313;SDS011;39202;51.468;7.146;2023-09-19T14:49:48;1.20;;;1.00;;
53313;SDS011;39202;51.468;7.146;2023-09-19T14:54:50;1.45;;;1.10;;
53313;SDS011;39202;51.468;7.146;2023-09-19T14:59:54;0.80;;;0.80;;
53313;SDS011;39202;51.468;7.146;2023-09-19T15:04:56;1.42;;;0.93;;
53313;SDS011;39202;51.468;7.146;2023-09-19T15:09:58;0.80;;;0.80;;
53313;SDS011;39202;51.468;7.146;2023-09-19T15:15:01;1.88;;;1.20;;
53313;SDS011;39202;51.468;7.146;2023-09-19T15:20:05;0.70;;;0.70;;
53313;SDS011;39202;51.468;7.146;2023-09-19T15:25:08;1.30;;;1.00;;
53313;SDS011;39202;51.468;7.146;2023-09-19T15:30:11;0.90;;;0.90;;
53313;SDS011;39202;51.468;7.146;2023-09-19T15:35:15;1.00;;;1.00;;
53313;SDS011;39202;51.468;7.146;2023-09-19T15:40:18;1.10;;;0.93;;
53313;SDS011;39202;51.468;7.146;2023-09-19T15:45:21;0.70;;;0.70;;
53313;SDS011;39202;51.468;7.146;2023-09-19T15:50:23;0.90;;;0.90;;
53313;SDS011;39202;51.468;7.146;2023-09-19T15:55:25;2.45;;;1.10;;
53313;SDS011;39202;51.468;7.146;2023-09-19T16:00:28;0.90;;;0.90;;
53313;SDS011;39202;51.468;7.146;2023-09-19T16:05:34;0.80;;;0.80;;
53313;SDS011;39202;51.468;7.146;2023-09-19T16:10:37;0.75;;;0.70;;
53313;SDS011;39202;51.468;7.146;2023-09-19T16:15:42;0.80;;;0.80;;
53313;SDS011;39202;51.468;7.146;2023-09-19T16:20:44;1.20;;;0.80;;
53313;SDS011;39202;51.468;7.146;2023-09-19T16:25:46;1.02;;;0.80;;
53313;SDS011;39202;51.468;7.146;2023-09-19T16:30:49;0.80;;;0.77;;
53313;SDS011;39202;51.468;7.146;2023-09-19T16:35:51;0.70;;;0.70;;
53313;SDS011;39202;51.468;7.146;2023-09-19T16:40:54;0.77;;;0.77;;
53313;SDS011;39202;51.468;7.146;2023-09-19T16:45:59;1.08;;;0.90;;
53313;SDS011;39202;51.468;7.146;2023-09-19T16:51:03;0.85;;;0.60;;
53313;SDS011;39202;51.468;7.146;2023-09-19T16:56:08;0.82;;;0.80;;
53313;SDS011;39202;51.468;7.146;2023-09-19T17:01:13;0.70;;;0.70;;
53313;SDS011;39202;51.468;7.146;2023-09-19T17:06:16;0.77;;;0.70;;
53313;SDS011;39202;51.468;7.146;2023-09-19T17:11:21;0.70;;;0.70;;
53313;SDS011;39202;51.468;7.146;2023-09-19T17:16:25;0.73;;;0.73;;
53313;SDS011;39202;51.468;7.146;2023-09-19T17:21:28;0.80;;;0.80;;
53313;SDS011;39202;51.468;7.146;2023-09-19T17:26:31;0.80;;;0.80;;
53313;SDS011;39202;51.468;7.146;2023-09-19T17:31:35;1.38;;;0.90;;
53313;SDS011;39202;51.468;7.146;2023-09-19T17:36:37;0.80;;;0.80;;
53313;SDS011;39202;51.468;7.146;2023-09-19T17:41:42;0.70;;;0.70;;
53313;SDS011;39202;51.468;7.146;2023-09-19T17:46:45;1.40;;;0.70;;
53313;SDS011;39202;51.468;7.146;2023-09-19T17:51:48;0.77;;;0.77;;
53313;SDS011;39202;51.468;7.146;2023-09-19T17:56:50;1.00;;;0.77;;
53313;SDS011;39202;51.468;7.146;2023-09-19T18:01:53;0.60;;;0.60;;
53313;SDS011;39202;51.468;7.146;2023-09-19T18:06:55;0.60;;;0.60;;
53313;SDS011;39202;51.468;7.146;2023-09-19T18:11:57;0.60;;;0.60;;
53313;SDS011;39202;51.468;7.146;2023-09-19T18:17:00;0.65;;;0.65;;
53313;SDS011;39202;51.468;7.146;2023-09-19T18:22:01;0.60;;;0.60;;
53313;SDS011;39202;51.468;7.146;2023-09-19T18:27:05;0.57;;;0.57;;
53313;SDS011;39202;51.468;7.146;2023-09-19T18:32:08;0.60;;;0.60;;
53313;SDS011;39202;51.468;7.146;2023-09-19T18:37:10;0.68;;;0.68;;
53313;SDS011;39202;51.468;7.146;2023-09-19T18:42:12;0.50;;;0.50;;
53313;SDS011;39202;51.468;7.146;2023-09-19T18:47:15;0.60;;;0.60;;
53313;SDS011;39202;51.468;7.146;2023-09-19T18:52:17;0.63;;;0.60;;
53313;SDS011;39202;51.468;7.146;2023-09-19T18:57:18;0.63;;;0.63;;
53313;SDS011;39202;51.468;7.146;2023-09-19T19:02:21;0.60;;;0.60;;
53313;SDS011;39202;51.468;7.146;2023-09-19T19:07:23;0.50;;;0.50;;
53313;SDS011;39202;51.468;7.146;2023-09-19T19:12:25;0.60;;;0.60;;
53313;SDS011;39202;51.468;7.146;2023-09-19T19:17:28;0.75;;;0.75;;
53313;SDS011;39202;51.468;7.146;2023-09-19T19:22:31;0.77;;;0.68;;
53313;SDS011;39202;51.468;7.146;2023-09-19T19:27:33;0.60;;;0.60;;
53313;SDS011;39202;51.468;7.146;2023-09-19T19:32:36;0.50;;;0.50;;
53313;SDS011;39202;51.468;7.146;2023-09-19T19:37:39;0.70;;;0.60;;
53313;SDS011;39202;51.468;7.146;2023-09-19T19:42:40;0.70;;;0.70;;
53313;SDS011;39202;51.468;7.146;2023-09-19T19:47:43;0.60;;;0.60;;
53313;SDS011;39202;51.468;7.146;2023-09-19T19:52:50;0.65;;;0.65;;
53313;SDS011;39202;51.468;7.146;2023-09-19T19:57:53;0.60;;;0.60;;
53313;SDS011;39202;51.468;7.146;2023-09-19T20:02:56;0.70;;;0.70;;
53313;SDS011;39202;51.468;7.146;2023-09-19T20:07:58;0.93;;;0.68;;
53313;SDS011;39202;51.468;7.146;2023-09-19T20:12:59;0.60;;;0.60;;
53313;SDS011;39202;51.468;7.146;2023-09-19T20:18:08;0.70;;;0.70;;
53313;SDS011;39202;51.468;7.146;2023-09-19T20:23:12;0.75;;;0.70;;
53313;SDS011;39202;51.468;7.146;2023-09-19T20:28:14;0.70;;;0.70;;
53313;SDS011;39202;51.468;7.146;2023-09-19T20:33:18;0.70;;;0.70;;
53313;SDS011;39202;51.468;7.146;2023-09-19T20:38:19;0.60;;;0.60;;
53313;SDS011;39202;51.468;7.146;2023-09-19T20:43:23;0.65;;;0.65;;
53313;SDS011;39202;51.468;7.146;2023-09-19T20:48:26;0.90;;;0.88;;
53313;SDS011;39202;51.468;7.146;2023-09-19T20:53:28;0.60;;;0.60;;
53313;SDS011;39202;51.468;7.146;2023-09-19T20:58:31;0.80;;;0.80;;
53313;SDS011;39202;51.468;7.146;2023-09-19T21:03:35;0.70;;;0.70;;
53313;SDS011;39202;51.468;7.146;2023-09-19T21:08:40;0.70;;;0.70;;
53313;SDS011;39202;51.468;7.146;2023-09-19T21:13:44;0.60;;;0.60;;
53313;SDS011;39202;51.468;7.146;2023-09-19T21:18:49;0.70;;;0.70;;
53313;SDS011;39202;51.468;7.146;2023-09-19T21:23:51;0.70;;;0.70;;
53313;SDS011;39202;51.468;7.146;2023-09-19T21:28:53;1.35;;;0.70;;
53313;SDS011;39202;51.468;7.146;2023-09-19T21:33:58;0.70;;;0.70;;
53313;SDS011;39202;51.468;7.146;2023-09-19T21:39:00;0.77;;;0.77;;
53313;SDS011;39202;51.468;7.146;2023-09-19T21:44:02;0.60;;;0.60;;
53313;SDS011;39202;51.468;7.146;2023-09-19T21:49:06;0.65;;;0.65;;
53313;SDS011;39202;51.468;7.146;2023-09-19T21:54:07;0.60;;;0.60;;
53313;SDS011;39202;51.468;7.146;2023-09-19T21:59:09;0.60;;;0.60;;
53313;SDS011;39202;51.468;7.146;2023-09-19T22:04:12;0.70;;;0.70;;
53313;SDS011;39202;51.468;7.146;2023-09-19T22:09:15;0.73;;;0.73;;
53313;SDS011;39202;51.468;7.146;2023-09-19T22:14:16;0.73;;;0.73;;
53313;SDS011;39202;51.468;7.146;2023-09-19T22:19:20;0.60;;;0.60;;
53313;SDS011;39202;51.468;7.146;2023-09-19T22:24:21;0.80;;;0.75;;
53313;SDS011;39202;51.468;7.146;2023-09-19T22:29:23;0.63;;;0.63;;
53313;SDS011;39202;51.468;7.146;2023-09-19T22:34:30;0.80;;;0.80;;
53313;SDS011;39202;51.468;7.146;2023-09-19T22:39:32;0.73;;;0.73;;
53313;SDS011;39202;51.468;7.146;2023-09-19T22:44:35;0.70;;;0.70;;
53313;SDS011;39202;51.468;7.146;2023-09-19T22:49:39;0.70;;;0.70;;
53313;SDS011;39202;51.468;7.146;2023-09-19T22:54:42;0.60;;;0.60;;
53313;SDS011;39202;51.468;7.146;2023-09-19T22:59:43;0.70;;;0.70;;
53313;SDS011;39202;51.468;7.146;2023-09-19T23:04:47;0.60;;;0.60;;
53313;SDS011;39202;51.468;7.146;2023-09-19T23:09:49;0.50;;;0.50;;
53313;SDS011;39202;51.468;7.146;2023-09-19T23:14:50;1.02;;;0.70;;
53313;SDS011;39202;51.468;7.146;2023-09-19T23:19:55;0.50;;;0.50;;
53313;SDS011;39202;51.468;7.146;2023-09-19T23:24:59;0.73;;;0.73;;
53313;SDS011;39202;51.468;7.146;2023-09-19T23:30:12;0.70;;;0.70;;
53313;SDS011;39202;51.468;7.146;2023-09-19T23:35:19;0.80;;;0.80;;
53313;SDS011;39202;51.468;7.146;2023-09-19T23:40:22;0.73;;;0.73;;
53313;SDS011;39202;51.468;7.146;2023-09-19T23:45:27;0.68;;;0.68;;
53313;SDS011;39202;51.468;7.146;2023-09-19T23:50:31;0.57;;;0.57;;
53313;SDS011;39202;51.468;7.146;2023-09-19T23:55:34;0.70;;;0.70;;
